createdAt,value
2023-05-04T00:01:30.388Z,12.90
2023-05-04T00:04:32.690Z,12.90
2023-05-04T00:07:35.316Z,12.80
2023-05-04T00:10:37.873Z,12.70
2023-05-04T00:13:39.894Z,12.70
2023-05-04T00:16:42.074Z,12.60
2023-05-04T00:19:44.285Z,12.40
2023-05-04T00:22:46.974Z,12.30
2023-05-04T00:25:49.109Z,12.40
2023-05-04T00:28:51.425Z,12.40
2023-05-04T00:31:53.671Z,12.30
2023-05-04T00:34:56.043Z,12.30
2023-05-04T00:37:58.442Z,12.20
2023-05-04T00:41:00.850Z,12.30
2023-05-04T00:44:04.241Z,12.30
2023-05-04T00:47:06.828Z,12.40
2023-05-04T00:50:09.186Z,12.30
2023-05-04T00:53:11.712Z,12.40
2023-05-04T00:56:14.843Z,12.30
2023-05-04T00:59:16.964Z,12.20
2023-05-04T01:02:19.997Z,12.10
2023-05-04T01:05:22.694Z,12.30
2023-05-04T01:08:31.254Z,12.20
2023-05-04T01:11:56.660Z,12.10
2023-05-04T01:15:00.634Z,12.10
2023-05-04T01:18:04.293Z,12.10
2023-05-04T01:21:08.606Z,12.00
2023-05-04T01:24:10.922Z,12.00
2023-05-04T01:27:55.912Z,12.00
2023-05-04T01:31:01.800Z,11.90
2023-05-04T01:34:04.680Z,11.90
2023-05-04T01:37:09.371Z,11.80
2023-05-04T01:40:12.179Z,11.90
2023-05-04T01:43:14.337Z,11.80
2023-05-04T01:46:16.492Z,11.90
2023-05-04T01:49:18.574Z,11.70
2023-05-04T01:52:20.941Z,11.90
2023-05-04T01:55:23.104Z,11.70
2023-05-04T01:58:25.226Z,11.80
2023-05-04T02:01:28.466Z,11.80
2023-05-04T02:04:31.408Z,11.90
2023-05-04T02:07:33.517Z,11.70
2023-05-04T02:10:35.737Z,11.50
2023-05-04T02:13:40.005Z,11.60
2023-05-04T02:16:42.266Z,11.50
2023-05-04T02:19:46.946Z,11.40
2023-05-04T02:22:50.040Z,11.40
2023-05-04T02:25:55.590Z,11.30
2023-05-04T02:28:59.110Z,11.30
2023-05-04T02:32:01.365Z,11.30
2023-05-04T02:35:03.561Z,11.30
2023-05-04T02:38:05.876Z,11.30
2023-05-04T02:41:08.041Z,11.20
2023-05-04T02:44:10.207Z,11.10
2023-05-04T02:47:12.412Z,11.20
2023-05-04T02:50:14.543Z,11.30
2023-05-04T02:53:16.710Z,11.10
2023-05-04T02:56:18.888Z,11.10
2023-05-04T02:59:21.809Z,11.10
2023-05-04T03:02:23.976Z,11.10
2023-05-04T03:05:26.268Z,11.10
2023-05-04T03:08:28.545Z,11.00
2023-05-04T03:11:30.728Z,11.00
2023-05-04T03:14:32.844Z,11.10
2023-05-04T03:17:35.359Z,10.90
2023-05-04T03:20:38.032Z,10.90
2023-05-04T03:23:40.192Z,10.90
2023-05-04T03:26:42.368Z,10.90
2023-05-04T03:29:45.039Z,10.70
2023-05-04T03:32:49.407Z,10.60
2023-05-04T03:35:51.808Z,10.70
2023-05-04T03:38:55.140Z,10.60
2023-05-04T03:41:57.563Z,10.50
2023-05-04T03:45:04.264Z,10.40
2023-05-04T03:48:06.801Z,10.40
2023-05-04T03:51:08.821Z,10.40
2023-05-04T03:54:10.857Z,10.40
2023-05-04T03:57:12.897Z,10.60
2023-05-04T04:00:15.754Z,10.60
2023-05-04T04:03:18.321Z,10.60
2023-05-04T04:06:20.665Z,10.60
2023-05-04T04:09:22.681Z,10.60
2023-05-04T04:12:24.674Z,10.60
2023-05-04T04:15:26.716Z,10.60
2023-05-04T04:18:28.774Z,10.50
2023-05-04T04:21:30.742Z,10.60
2023-05-04T04:24:32.756Z,10.70
2023-05-04T04:27:35.018Z,10.70
2023-05-04T04:30:37.065Z,10.90
2023-05-04T04:33:39.060Z,10.90
2023-05-04T04:36:41.135Z,11.00
2023-05-04T04:39:43.090Z,10.90
2023-05-04T04:42:45.110Z,11.00
2023-05-04T04:45:47.135Z,11.10
2023-05-04T04:48:49.655Z,11.00
2023-05-04T04:51:51.859Z,11.20
2023-05-04T04:54:53.923Z,11.30
2023-05-04T04:57:56.008Z,11.40
2023-05-04T05:00:57.986Z,11.40
2023-05-04T05:04:00.439Z,11.50
2023-05-04T05:07:02.452Z,11.50
2023-05-04T05:10:05.290Z,11.80
2023-05-04T05:13:07.853Z,11.70
2023-05-04T05:16:09.927Z,11.80
2023-05-04T05:19:11.925Z,11.80
2023-05-04T05:22:14.121Z,11.90
2023-05-04T05:25:16.107Z,12.10
2023-05-04T05:28:18.101Z,12.10
2023-05-04T05:31:20.216Z,12.10
2023-05-04T05:34:22.366Z,12.30
2023-05-04T05:37:24.524Z,12.40
2023-05-04T05:40:26.568Z,12.50
2023-05-04T05:43:28.563Z,12.60
2023-05-04T05:46:30.616Z,12.70
2023-05-04T05:49:32.717Z,12.90
2023-05-04T05:52:34.697Z,13.00
2023-05-04T05:55:36.918Z,13.40
2023-05-04T05:58:39.628Z,13.70
2023-05-04T06:01:42.566Z,14.10
2023-05-04T06:04:44.660Z,14.80
2023-05-04T06:07:46.930Z,15.10
2023-05-04T06:10:48.998Z,15.50
2023-05-04T06:13:50.983Z,15.80
2023-05-04T06:16:53.100Z,16.20
2023-05-04T06:19:55.120Z,16.90
2023-05-04T06:22:57.549Z,17.20
2023-05-04T06:25:59.572Z,17.40
2023-05-04T06:29:01.586Z,17.70
2023-05-04T06:32:03.791Z,18.00
2023-05-04T06:35:06.331Z,18.10
2023-05-04T06:38:08.262Z,18.60
2023-05-04T06:41:10.239Z,18.90
2023-05-04T06:44:12.238Z,18.80
2023-05-04T06:47:14.360Z,18.80
2023-05-04T06:50:16.351Z,19.50
2023-05-04T06:53:18.306Z,20.10
2023-05-04T06:56:20.266Z,20.50
2023-05-04T06:59:22.449Z,21.00
2023-05-04T07:02:24.784Z,21.10
2023-05-04T07:05:26.829Z,21.00
2023-05-04T07:08:28.721Z,21.40
2023-05-04T07:11:30.694Z,21.60
2023-05-04T07:14:32.894Z,21.40
2023-05-04T07:17:35.094Z,21.20
2023-05-04T07:20:37.149Z,22.00
2023-05-04T07:23:39.098Z,22.30
2023-05-04T07:26:43.400Z,22.00
2023-05-04T07:29:45.418Z,21.40
2023-05-04T07:32:47.719Z,22.00
2023-05-04T07:35:49.722Z,22.50
2023-05-04T07:38:51.709Z,22.10
2023-05-04T07:41:53.767Z,22.10
2023-05-04T07:44:55.828Z,22.50
2023-05-04T07:47:57.864Z,21.90
2023-05-04T07:50:59.905Z,22.10
2023-05-04T07:54:01.904Z,22.30
2023-05-04T07:57:04.019Z,22.60
2023-05-04T08:00:07.213Z,23.20
2023-05-04T08:03:15.624Z,23.40
2023-05-04T08:06:17.592Z,23.50
2023-05-04T08:09:19.860Z,23.50
2023-05-04T08:12:22.277Z,23.40
2023-05-04T08:15:24.352Z,23.30
2023-05-04T08:18:26.416Z,23.20
2023-05-04T08:21:28.528Z,23.60
2023-05-04T08:24:30.568Z,23.90
2023-05-04T08:27:32.748Z,23.90
2023-05-04T08:30:34.731Z,24.00
2023-05-04T08:33:36.797Z,24.80
2023-05-04T08:36:38.825Z,24.60
2023-05-04T08:39:42.059Z,24.70
2023-05-04T08:42:44.299Z,25.40
2023-05-04T08:45:46.341Z,25.40
2023-05-04T08:48:48.617Z,26.00
2023-05-04T08:51:51.784Z,25.90
2023-05-04T08:54:55.914Z,25.90
2023-05-04T08:58:01.443Z,26.70
2023-05-04T09:01:04.411Z,26.40
2023-05-04T09:04:11.296Z,26.00
2023-05-04T09:07:13.688Z,26.20
2023-05-04T09:10:16.199Z,25.70
2023-05-04T09:13:18.258Z,25.70
2023-05-04T09:16:20.409Z,25.80
2023-05-04T09:19:22.409Z,25.80
2023-05-04T09:22:24.414Z,25.90
2023-05-04T09:25:26.416Z,26.00
2023-05-04T09:28:36.202Z,25.50
2023-05-04T09:31:50.213Z,25.90
2023-05-04T09:34:53.217Z,26.50
2023-05-04T09:37:55.287Z,26.30
2023-05-04T09:40:58.112Z,26.60
2023-05-04T09:44:02.626Z,27.00
2023-05-04T09:47:04.786Z,26.90
2023-05-04T09:50:16.229Z,27.40
2023-05-04T09:53:24.871Z,27.50
2023-05-04T09:56:30.085Z,27.00
2023-05-04T09:59:33.068Z,26.50
2023-05-04T10:02:35.910Z,26.80
2023-05-04T10:05:39.349Z,27.50
2023-05-04T10:08:41.425Z,27.30
2023-05-04T10:11:44.814Z,26.90
2023-05-04T10:14:47.399Z,26.40
2023-05-04T10:18:07.501Z,26.60
2023-05-04T10:21:27.595Z,26.90
2023-05-04T10:24:45.969Z,26.70
2023-05-04T10:28:12.197Z,26.50
2023-05-04T10:31:14.599Z,26.70
2023-05-04T10:34:30.581Z,26.50
2023-05-04T10:37:32.898Z,27.00
2023-05-04T10:40:39.454Z,26.80
2023-05-04T10:43:44.196Z,26.80
2023-05-04T10:46:59.476Z,27.00
2023-05-04T10:50:12.309Z,27.30
2023-05-04T11:03:23.734Z,26.50
2023-05-04T11:06:25.869Z,26.70
2023-05-04T11:09:28.851Z,26.50
2023-05-04T11:12:32.485Z,26.60
2023-05-04T11:15:44.874Z,26.40
2023-05-04T11:18:46.931Z,26.40
2023-05-04T11:21:50.194Z,26.30
2023-05-04T11:24:53.666Z,26.30
2023-05-04T11:27:57.424Z,26.50
2023-05-04T11:30:59.414Z,26.60
2023-05-04T11:34:02.169Z,26.40
2023-05-04T11:37:05.498Z,26.20
2023-05-04T11:40:17.555Z,26.30
2023-05-04T11:43:20.221Z,26.40
2023-05-04T11:46:22.903Z,26.00
2023-05-04T11:49:25.277Z,26.40
2023-05-04T11:52:27.583Z,26.10
2023-05-04T11:55:31.466Z,26.20
2023-05-04T11:58:33.569Z,26.40
2023-05-04T12:01:37.142Z,26.50
2023-05-04T12:04:39.287Z,26.30
2023-05-04T12:07:41.411Z,26.20
2023-05-04T12:10:43.637Z,26.10
2023-05-04T12:13:47.073Z,25.90
2023-05-04T12:16:56.396Z,26.20
2023-05-04T12:19:58.659Z,26.20
2023-05-04T12:23:06.582Z,26.20
2023-05-04T12:26:09.739Z,26.00
2023-05-04T12:29:11.973Z,26.20
2023-05-04T12:32:14.179Z,26.40
2023-05-04T12:35:16.414Z,26.40
2023-05-04T12:38:18.646Z,26.50
2023-05-04T12:41:20.786Z,26.30
2023-05-04T12:44:22.925Z,26.40
2023-05-04T12:47:27.610Z,26.40
2023-05-04T12:50:29.900Z,26.20
2023-05-04T12:53:32.406Z,26.30
2023-05-04T12:56:34.655Z,26.40
2023-05-04T12:59:36.819Z,26.20
2023-05-04T13:02:39.022Z,26.20
2023-05-04T13:05:41.382Z,26.50
2023-05-04T13:08:43.444Z,26.30
2023-05-04T13:11:45.682Z,26.60
2023-05-04T13:14:47.734Z,26.40
2023-05-04T13:17:50.270Z,26.40
2023-05-04T13:20:52.739Z,26.50
2023-05-04T13:23:54.912Z,26.70
2023-05-04T13:26:57.413Z,26.90
2023-05-04T13:29:59.760Z,26.40
2023-05-04T13:33:07.599Z,26.60
2023-05-04T13:36:15.752Z,26.70
2023-05-04T13:39:22.696Z,26.60
2023-05-04T13:42:24.818Z,26.60
2023-05-04T13:45:26.918Z,26.50
2023-05-04T13:48:29.037Z,26.70
2023-05-04T13:51:31.458Z,26.60
2023-05-04T13:54:33.719Z,26.60
2023-05-04T13:57:35.804Z,26.50
2023-05-04T14:00:38.210Z,26.50
2023-05-04T14:03:40.467Z,26.60
2023-05-04T14:06:42.676Z,26.70
2023-05-04T14:09:44.952Z,26.50
2023-05-04T14:12:47.211Z,26.50
2023-05-04T14:15:49.292Z,26.50
2023-05-04T14:18:51.531Z,26.50
2023-05-04T14:21:53.667Z,26.50
2023-05-04T14:24:55.941Z,26.70
2023-05-04T14:27:58.181Z,26.70
2023-05-04T14:31:00.696Z,26.50
2023-05-04T14:34:02.911Z,26.70
2023-05-04T14:37:05.122Z,26.30
2023-05-04T14:40:09.082Z,26.40
2023-05-04T14:43:11.508Z,26.50
2023-05-04T14:46:13.655Z,26.50
2023-05-04T14:49:24.525Z,26.60
2023-05-04T14:52:31.295Z,26.70
2023-05-04T14:55:33.381Z,26.70
2023-05-04T14:58:35.417Z,26.70
2023-05-04T15:01:37.605Z,26.80
2023-05-04T15:04:39.725Z,26.40
2023-05-04T15:07:41.879Z,26.50
2023-05-04T15:10:44.002Z,26.60
2023-05-04T15:13:46.171Z,26.60
2023-05-04T15:16:48.394Z,26.70
2023-05-04T15:19:52.831Z,26.70
2023-05-04T15:22:54.966Z,26.70
2023-05-04T15:25:57.309Z,26.50
2023-05-04T15:29:00.040Z,26.40
2023-05-04T15:32:02.187Z,26.20
2023-05-04T15:35:06.946Z,26.30
2023-05-04T15:38:11.315Z,26.30
2023-05-04T15:41:13.948Z,26.40
2023-05-04T15:44:16.418Z,26.30
2023-05-04T15:47:18.914Z,26.30
2023-05-04T15:50:21.375Z,26.40
2023-05-04T15:53:23.327Z,26.30
2023-05-04T15:56:25.342Z,26.20
2023-05-04T15:59:27.469Z,26.20
2023-05-04T16:02:29.505Z,26.30
2023-05-04T16:05:31.677Z,26.10
2023-05-04T16:08:33.683Z,26.10
2023-05-04T16:11:35.753Z,26.00
2023-05-04T16:14:37.792Z,25.90
2023-05-04T16:17:39.910Z,25.90
2023-05-04T16:20:41.934Z,25.90
2023-05-04T16:23:44.105Z,26.00
2023-05-04T16:26:46.101Z,25.90
2023-05-04T16:29:48.338Z,25.80
2023-05-04T16:32:50.383Z,25.90
2023-05-04T16:35:52.527Z,25.80
2023-05-04T16:38:54.535Z,25.80
2023-05-04T16:41:57.906Z,25.80
2023-05-04T16:44:59.859Z,25.80
2023-05-04T16:48:02.383Z,25.70
2023-05-04T16:51:07.537Z,25.70
2023-05-04T16:54:09.778Z,25.70
2023-05-04T16:57:11.765Z,25.50
2023-05-04T17:00:14.486Z,25.50
2023-05-04T17:03:16.633Z,25.40
2023-05-04T17:06:18.655Z,25.20
2023-05-04T17:09:20.744Z,25.00
2023-05-04T17:12:22.736Z,25.00
2023-05-04T17:15:27.638Z,25.00
2023-05-04T17:18:32.096Z,24.90
2023-05-04T17:21:34.131Z,24.90
2023-05-04T17:24:36.082Z,24.90
2023-05-04T17:27:38.713Z,24.80
2023-05-04T17:30:40.681Z,24.70
2023-05-04T17:33:42.948Z,24.60
2023-05-04T17:36:45.877Z,24.50
2023-05-04T17:39:47.912Z,24.50
2023-05-04T17:42:50.012Z,24.40
2023-05-04T17:45:54.299Z,24.30
2023-05-04T17:48:57.904Z,24.10
2023-05-04T17:51:59.940Z,24.10
2023-05-04T17:55:01.960Z,24.00
2023-05-04T17:58:03.998Z,24.00
2023-05-04T18:01:05.987Z,23.90
2023-05-04T18:04:08.022Z,23.90
2023-05-04T18:07:10.136Z,23.70
2023-05-04T18:10:12.363Z,23.70
2023-05-04T18:13:14.969Z,23.50
2023-05-04T18:16:17.467Z,23.30
2023-05-04T18:19:19.767Z,23.00
2023-05-04T18:22:22.275Z,23.10
2023-05-04T18:25:24.393Z,23.00
2023-05-04T18:28:26.584Z,23.00
2023-05-04T18:31:28.878Z,22.90
2023-05-04T18:34:31.034Z,22.80
2023-05-04T18:37:33.067Z,22.60
2023-05-04T18:40:35.083Z,22.40
2023-05-04T18:43:37.077Z,22.40
2023-05-04T18:46:38.948Z,22.40
2023-05-04T18:49:40.979Z,22.10
2023-05-04T18:52:43.095Z,22.00
2023-05-04T18:55:45.069Z,21.90
2023-05-04T18:58:47.049Z,21.90
2023-05-04T19:01:49.054Z,21.70
2023-05-04T19:04:51.018Z,21.60
2023-05-04T19:07:53.084Z,21.50
2023-05-04T19:10:57.788Z,21.50
2023-05-04T19:13:59.978Z,21.50
2023-05-04T19:17:02.295Z,21.50
2023-05-04T19:20:05.578Z,21.40
2023-05-04T19:23:07.956Z,21.40
2023-05-04T19:26:10.300Z,21.20
2023-05-04T19:29:13.640Z,21.00
2023-05-04T19:32:23.678Z,20.90
2023-05-04T19:35:27.123Z,20.90
2023-05-04T19:38:29.283Z,20.80
2023-05-04T19:41:32.016Z,20.80
2023-05-04T19:44:34.195Z,20.70
2023-05-04T19:47:36.437Z,20.60
2023-05-04T19:50:38.781Z,20.40
2023-05-04T19:53:41.059Z,20.10
2023-05-04T19:56:43.360Z,20.00
2023-05-04T19:59:47.273Z,20.10
2023-05-04T20:02:50.029Z,20.10
2023-05-04T20:05:52.532Z,20.10
2023-05-04T20:08:54.651Z,20.00
2023-05-04T20:11:56.854Z,20.00
2023-05-04T20:14:59.239Z,19.90
2023-05-04T20:18:01.899Z,19.90
2023-05-04T20:21:04.466Z,19.90
2023-05-04T20:24:06.817Z,19.90
2023-05-04T20:27:09.119Z,20.00
2023-05-04T20:30:11.946Z,20.00
2023-05-04T20:33:14.249Z,20.00
2023-05-04T20:36:16.615Z,19.90
2023-05-04T20:39:18.896Z,19.80
2023-05-04T20:42:21.229Z,19.70
2023-05-04T20:45:23.492Z,19.60
2023-05-04T20:48:25.810Z,19.40
2023-05-04T20:51:27.851Z,19.40
2023-05-04T20:54:29.959Z,19.40
2023-05-04T20:57:32.574Z,19.30
2023-05-04T21:00:34.968Z,19.30
2023-05-04T21:03:37.401Z,19.30
2023-05-04T21:06:39.970Z,19.30
2023-05-04T21:09:42.726Z,19.20
2023-05-04T21:12:45.037Z,19.20
2023-05-04T21:15:47.768Z,19.00
2023-05-04T21:18:50.261Z,18.90
2023-05-04T21:21:52.685Z,18.90
2023-05-04T21:24:54.861Z,18.90
2023-05-04T21:27:57.854Z,18.90
2023-05-04T21:30:59.991Z,18.90
2023-05-04T21:34:02.275Z,18.60
2023-05-04T21:37:04.736Z,18.30
2023-05-04T21:40:12.458Z,18.00
2023-05-04T21:43:14.634Z,18.00
2023-05-04T21:46:16.802Z,17.90
2023-05-04T21:49:19.044Z,18.00
2023-05-04T21:52:21.867Z,18.00
2023-05-04T21:55:24.143Z,17.90
2023-05-04T21:58:26.678Z,18.00
2023-05-04T22:01:29.349Z,17.90
2023-05-04T22:04:32.464Z,17.90
2023-05-04T22:07:36.513Z,17.90
2023-05-04T22:10:38.990Z,17.90
2023-05-04T22:13:41.074Z,17.70
2023-05-04T22:16:43.402Z,17.30
2023-05-04T22:19:45.501Z,17.40
2023-05-04T22:22:49.647Z,17.40
2023-05-04T22:25:51.707Z,16.80
2023-05-04T22:28:53.900Z,16.50
2023-05-04T22:31:56.141Z,16.60
2023-05-04T22:34:58.415Z,16.40
2023-05-04T22:38:00.582Z,16.70
2023-05-04T22:41:02.701Z,16.60
2023-05-04T22:44:05.186Z,16.40
2023-05-04T22:47:07.376Z,16.40
2023-05-04T22:50:10.456Z,16.60
2023-05-04T22:53:12.940Z,16.60
2023-05-04T22:56:15.172Z,16.40
2023-05-04T22:59:17.325Z,16.10
2023-05-04T23:02:19.610Z,16.20
2023-05-04T23:05:22.169Z,16.20
2023-05-04T23:08:26.001Z,16.20
2023-05-04T23:11:28.284Z,15.90
2023-05-04T23:14:30.896Z,15.80
2023-05-04T23:17:33.038Z,15.90
2023-05-04T23:20:35.989Z,15.90
2023-05-04T23:23:38.100Z,15.60
2023-05-04T23:26:40.380Z,15.80
2023-05-04T23:29:43.003Z,15.80
2023-05-04T23:32:45.207Z,15.90
2023-05-04T23:35:50.180Z,15.90
2023-05-04T23:38:54.482Z,16.00
2023-05-04T23:41:56.857Z,16.00
2023-05-04T23:44:59.373Z,15.90
2023-05-04T23:48:01.902Z,15.70
2023-05-04T23:51:04.321Z,15.60
2023-05-04T23:54:06.740Z,15.80
2023-05-04T23:57:08.811Z,15.90
